createdAt,value
2022-10-02T00:00:34.442Z,2.15
2022-10-02T00:03:22.542Z,2.95
2022-10-02T00:06:03.911Z,2.47
2022-10-02T00:08:35.876Z,2.28
2022-10-02T00:11:12.557Z,2.85
2022-10-02T00:13:59.259Z,1.80
2022-10-02T00:16:35.184Z,1.52
2022-10-02T00:19:03.119Z,2.10
2022-10-02T00:22:00.952Z,2.28
2022-10-02T00:24:39.159Z,1.35
2022-10-02T00:27:15.704Z,1.77
2022-10-02T00:29:52.467Z,1.27
2022-10-02T00:32:35.891Z,1.38
2022-10-02T00:35:41.112Z,1.55
2022-10-02T00:38:27.947Z,1.77
2022-10-02T00:41:03.725Z,1.83
2022-10-02T00:44:04.193Z,0.95
2022-10-02T00:46:57.266Z,0.82
2022-10-02T00:49:36.763Z,1.60
2022-10-02T00:52:21.458Z,1.42
2022-10-02T00:54:58.746Z,1.83
2022-10-02T00:57:40.787Z,1.50
2022-10-02T01:00:21.412Z,1.15
2022-10-02T01:03:12.259Z,1.45
2022-10-02T01:05:40.118Z,1.38
2022-10-02T01:08:07.667Z,1.02
2022-10-02T01:10:37.149Z,1.23
2022-10-02T01:13:04.093Z,1.67
2022-10-02T01:15:36.089Z,1.67
2022-10-02T01:18:04.287Z,1.58
2022-10-02T01:20:38.962Z,1.40
2022-10-02T01:23:24.891Z,0.88
2022-10-02T01:25:51.907Z,1.60
2022-10-02T01:28:19.311Z,1.85
2022-10-02T01:30:51.269Z,2.90
2022-10-02T01:33:19.565Z,1.38
2022-10-02T01:35:46.634Z,1.70
2022-10-02T01:38:18.744Z,1.38
2022-10-02T01:40:45.667Z,1.40
2022-10-02T01:43:16.666Z,1.88
2022-10-02T01:46:21.635Z,1.40
2022-10-02T01:49:16.170Z,1.55
2022-10-02T01:52:08.706Z,2.47
2022-10-02T01:55:13.885Z,2.00
2022-10-02T01:58:21.096Z,2.20
2022-10-02T02:01:15.445Z,1.30
2022-10-02T02:03:56.583Z,1.83
2022-10-02T02:06:41.620Z,2.85
2022-10-02T02:09:20.623Z,3.88
2022-10-02T02:12:08.936Z,4.38
2022-10-02T02:14:48.184Z,5.10
2022-10-02T02:17:25.134Z,5.25
2022-10-02T02:20:04.291Z,7.80
2022-10-02T02:22:37.088Z,7.38
2022-10-02T02:25:08.812Z,7.72
2022-10-02T02:27:41.847Z,8.32
2022-10-02T02:30:12.616Z,6.95
2022-10-02T02:32:46.316Z,8.13
2022-10-02T02:35:21.920Z,7.72
2022-10-02T02:37:53.231Z,8.07
2022-10-02T02:40:25.893Z,7.15
2022-10-02T02:43:09.151Z,8.93
2022-10-02T02:45:42.818Z,7.90
2022-10-02T02:48:25.877Z,6.82
2022-10-02T02:51:08.649Z,7.45
2022-10-02T02:53:54.324Z,7.20
2022-10-02T02:56:22.667Z,6.93
2022-10-02T02:59:09.285Z,7.63
2022-10-02T03:01:36.415Z,7.25
2022-10-02T03:04:03.992Z,8.02
2022-10-02T03:06:45.420Z,8.00
2022-10-02T03:09:18.715Z,9.38
2022-10-02T03:12:33.254Z,10.07
2022-10-02T03:15:30.054Z,8.65
2022-10-02T03:18:20.698Z,11.43
2022-10-02T03:21:19.077Z,9.10
2022-10-02T03:24:01.957Z,9.95
2022-10-02T03:26:45.307Z,9.32
2022-10-02T03:29:22.064Z,8.63
2022-10-02T03:31:49.964Z,9.90
2022-10-02T03:34:18.221Z,9.88
2022-10-02T03:36:46.397Z,11.40
2022-10-02T03:39:24.841Z,9.48
2022-10-02T03:41:53.930Z,9.45
2022-10-02T03:44:20.989Z,8.57
2022-10-02T03:46:47.988Z,10.25
2022-10-02T03:49:14.910Z,8.75
2022-10-02T03:51:41.865Z,8.65
2022-10-02T03:54:21.047Z,8.85
2022-10-02T03:56:56.785Z,8.02
2022-10-02T04:02:21.734Z,8.35
2022-10-02T04:04:56.668Z,6.22
2022-10-02T04:07:33.087Z,7.47
2022-10-02T04:10:43.050Z,6.15
2022-10-02T04:13:32.421Z,8.07
2022-10-02T04:16:11.237Z,8.95
2022-10-02T04:19:18.909Z,6.72
2022-10-02T04:22:07.890Z,6.38
2022-10-02T04:24:47.809Z,6.28
2022-10-02T04:27:42.112Z,6.53
2022-10-02T04:30:18.510Z,6.93
2022-10-02T04:32:46.025Z,6.93
2022-10-02T04:35:50.113Z,7.47
2022-10-02T04:39:02.515Z,5.38
2022-10-02T04:42:03.490Z,6.03
2022-10-02T04:45:01.732Z,8.50
2022-10-02T04:47:37.742Z,5.13
2022-10-02T04:50:14.400Z,6.78
2022-10-02T04:53:14.935Z,5.88
2022-10-02T04:56:19.105Z,5.45
2022-10-02T04:59:11.942Z,5.95
2022-10-02T05:02:10.876Z,6.20
2022-10-02T05:05:08.870Z,4.63
2022-10-02T05:08:12.006Z,5.90
2022-10-02T05:10:53.903Z,6.10
2022-10-02T05:14:13.441Z,4.57
2022-10-02T05:16:59.890Z,5.05
2022-10-02T05:19:57.231Z,5.35
2022-10-02T05:23:11.341Z,5.93
2022-10-02T05:25:46.954Z,5.47
2022-10-02T05:28:48.801Z,4.57
2022-10-02T05:31:52.227Z,4.40
2022-10-02T05:34:38.197Z,4.18
2022-10-02T05:37:42.352Z,4.53
2022-10-02T05:40:21.666Z,4.53
2022-10-02T05:42:57.095Z,4.35
2022-10-02T05:45:37.651Z,4.07
2022-10-02T05:48:24.369Z,4.72
2022-10-02T05:50:59.607Z,4.68
2022-10-02T05:53:38.803Z,5.03
2022-10-02T05:56:16.547Z,5.93
2022-10-02T05:59:18.495Z,7.03
2022-10-02T06:01:50.214Z,7.03
2022-10-02T06:04:37.739Z,7.95
2022-10-02T06:07:15.586Z,6.65
2022-10-02T06:09:51.937Z,7.75
2022-10-02T06:12:39.248Z,5.90
2022-10-02T06:15:16.022Z,7.00
2022-10-02T06:17:51.742Z,7.93
2022-10-02T06:23:27.992Z,7.93
2022-10-02T06:26:00.983Z,5.47
2022-10-02T06:28:52.137Z,6.32
2022-10-02T06:31:43.714Z,5.68
2022-10-02T06:34:14.595Z,7.22
2022-10-02T06:36:50.335Z,5.28
2022-10-02T06:42:39.832Z,4.53
2022-10-02T06:45:18.252Z,6.40
2022-10-02T06:48:31.152Z,5.40
2022-10-02T06:51:10.384Z,5.75
2022-10-02T06:54:12.352Z,5.30
2022-10-02T06:56:58.927Z,5.03
2022-10-02T06:59:46.831Z,4.85
2022-10-02T07:02:41.087Z,3.95
2022-10-02T07:05:48.152Z,4.82
2022-10-02T07:11:26.623Z,2.78
2022-10-02T07:14:20.609Z,4.00
2022-10-02T07:17:24.920Z,3.88
2022-10-02T07:20:33.660Z,4.65
2022-10-02T07:24:01.411Z,3.28
2022-10-02T07:26:49.747Z,3.20
2022-10-02T07:29:53.605Z,5.10
2022-10-02T07:32:26.164Z,3.65
2022-10-02T07:35:20.339Z,3.40
2022-10-02T07:38:23.825Z,5.43
2022-10-02T07:41:16.762Z,3.05
2022-10-02T07:44:39.360Z,4.72
2022-10-02T07:47:37.907Z,3.55
2022-10-02T07:50:52.341Z,4.88
2022-10-02T07:53:30.980Z,3.67
2022-10-02T07:55:59.182Z,4.88
2022-10-02T07:58:39.602Z,2.85
2022-10-02T08:01:16.582Z,2.95
2022-10-02T08:04:10.582Z,3.22
2022-10-02T08:06:38.319Z,2.83
2022-10-02T08:10:12.466Z,3.00
2022-10-02T08:13:00.507Z,2.13
2022-10-02T08:15:35.285Z,3.15
2022-10-02T08:18:38.563Z,2.67
2022-10-02T08:21:14.448Z,1.83
2022-10-02T08:24:36.756Z,2.90
2022-10-02T08:27:15.583Z,2.35
2022-10-02T08:29:53.160Z,3.90
2022-10-02T08:32:22.744Z,2.53
2022-10-02T08:34:50.192Z,3.17
2022-10-02T08:38:10.257Z,4.45
2022-10-02T08:41:29.257Z,2.78
2022-10-02T08:44:36.271Z,3.05
2022-10-02T08:47:22.832Z,2.03
2022-10-02T08:50:30.225Z,4.95
2022-10-02T08:53:32.329Z,2.28
2022-10-02T08:56:14.428Z,1.65
2022-10-02T08:58:53.993Z,2.95
2022-10-02T09:02:11.879Z,3.35
2022-10-02T09:05:29.036Z,2.17
2022-10-02T09:08:37.103Z,2.38
2022-10-02T09:11:53.481Z,2.97
2022-10-02T09:14:48.994Z,4.57
2022-10-02T09:17:45.481Z,2.60
2022-10-02T09:23:56.811Z,1.77
2022-10-02T09:27:08.242Z,2.20
2022-10-02T09:30:05.508Z,1.88
2022-10-02T09:33:16.303Z,1.90
2022-10-02T09:36:24.759Z,3.85
2022-10-02T09:39:32.882Z,2.88
2022-10-02T09:42:53.316Z,1.63
2022-10-02T09:45:44.042Z,4.18
2022-10-02T09:48:51.949Z,3.60
2022-10-02T09:51:56.461Z,2.55
2022-10-02T09:55:22.287Z,3.42
2022-10-02T09:58:17.047Z,2.38
2022-10-02T10:01:04.758Z,1.80
2022-10-02T10:04:24.229Z,2.20
2022-10-02T10:07:20.449Z,1.60
2022-10-02T10:10:38.152Z,1.42
2022-10-02T10:13:42.432Z,1.83
2022-10-02T10:16:45.466Z,1.83
2022-10-02T10:20:17.491Z,1.35
2022-10-02T10:23:31.744Z,1.30
2022-10-02T10:26:34.558Z,1.55
2022-10-02T10:29:31.853Z,3.75
2022-10-02T10:32:14.508Z,3.05
2022-10-02T10:34:53.887Z,3.67
2022-10-02T10:38:07.528Z,2.15
2022-10-02T10:41:11.031Z,2.38
2022-10-02T10:44:27.385Z,2.53
2022-10-02T10:47:35.316Z,2.93
2022-10-02T10:50:42.510Z,2.15
2022-10-02T10:54:02.052Z,2.28
2022-10-02T10:56:39.514Z,1.50
2022-10-02T10:59:38.045Z,1.20
2022-10-02T11:02:54.648Z,1.67
2022-10-02T11:05:49.669Z,1.98
2022-10-02T11:08:39.777Z,2.15
2022-10-02T11:11:39.462Z,1.45
2022-10-02T11:14:50.590Z,2.13
2022-10-02T11:17:44.340Z,1.27
2022-10-02T11:20:42.479Z,1.40
2022-10-02T11:23:34.155Z,1.30
2022-10-02T11:26:35.975Z,1.95
2022-10-02T11:29:55.099Z,1.38
2022-10-02T11:32:51.490Z,1.55
2022-10-02T11:38:23.011Z,1.42
2022-10-02T11:41:39.223Z,1.20
2022-10-02T11:44:17.718Z,1.95
2022-10-02T11:47:08.652Z,1.45
2022-10-02T11:50:01.141Z,3.08
2022-10-02T11:52:54.951Z,1.92
2022-10-02T11:55:53.240Z,1.35
2022-10-02T11:58:53.550Z,2.17
2022-10-02T12:01:45.592Z,2.20
2022-10-02T12:04:42.058Z,1.17
2022-10-02T12:10:16.275Z,1.43
2022-10-02T12:13:10.495Z,1.02
2022-10-02T12:15:52.615Z,1.10
2022-10-02T12:18:59.803Z,1.30
2022-10-02T12:22:03.664Z,1.40
2022-10-02T12:25:03.291Z,1.33
2022-10-02T12:27:45.978Z,1.67
2022-10-02T12:30:15.676Z,1.58
2022-10-02T12:33:14.535Z,1.20
2022-10-02T12:35:57.888Z,3.72
2022-10-02T12:39:00.894Z,1.85
2022-10-02T12:42:20.397Z,1.30
2022-10-02T12:45:11.828Z,2.17
2022-10-02T12:48:01.523Z,1.00
2022-10-02T12:51:35.398Z,2.15
2022-10-02T12:54:36.044Z,1.40
2022-10-02T12:57:38.788Z,2.17
2022-10-02T13:00:14.502Z,1.35
2022-10-02T13:03:01.307Z,1.20
2022-10-02T13:06:03.502Z,1.20
2022-10-02T13:09:00.745Z,2.15
2022-10-02T13:11:36.810Z,2.28
2022-10-02T13:14:40.044Z,1.35
2022-10-02T13:17:35.920Z,2.28
2022-10-02T13:20:20.756Z,1.40
2022-10-02T13:23:31.953Z,1.00
2022-10-02T13:26:13.672Z,0.85
2022-10-02T13:29:21.059Z,1.10
2022-10-02T13:32:26.103Z,1.92
2022-10-02T13:35:22.560Z,2.38
2022-10-02T13:40:56.662Z,2.17
2022-10-02T13:44:07.210Z,1.58
2022-10-02T13:46:55.158Z,2.70
2022-10-02T13:50:02.190Z,1.70
2022-10-02T13:52:56.651Z,1.10
2022-10-02T13:55:34.608Z,1.75
2022-10-02T13:58:28.667Z,0.82
2022-10-02T14:01:21.730Z,1.42
2022-10-02T14:04:23.435Z,1.45
2022-10-02T14:06:55.468Z,1.50
2022-10-02T14:09:43.239Z,1.48
2022-10-02T14:12:27.930Z,1.50
2022-10-02T14:15:15.651Z,1.42
2022-10-02T14:17:52.419Z,2.22
2022-10-02T14:20:58.912Z,2.10
2022-10-02T14:23:59.443Z,1.85
2022-10-02T14:26:52.539Z,1.67
2022-10-02T14:29:26.039Z,1.48
2022-10-02T14:32:23.168Z,1.40
2022-10-02T14:35:22.707Z,1.10
2022-10-02T14:38:09.877Z,2.58
2022-10-02T14:40:53.425Z,1.92
2022-10-02T14:43:50.084Z,2.28
2022-10-02T14:46:51.467Z,1.67
2022-10-02T14:49:53.997Z,1.80
2022-10-02T14:52:48.107Z,1.67
2022-10-02T14:55:30.824Z,1.50
2022-10-02T14:58:20.692Z,1.17
2022-10-02T15:01:06.621Z,1.20
2022-10-02T15:06:26.253Z,1.55
2022-10-02T15:09:00.582Z,2.20
2022-10-02T15:12:11.816Z,1.45
2022-10-02T15:14:54.684Z,1.98
2022-10-02T15:17:55.959Z,1.40
2022-10-02T15:20:31.085Z,1.17
2022-10-02T15:23:09.745Z,1.90
2022-10-02T15:26:01.423Z,2.22
2022-10-02T15:28:54.266Z,1.55
2022-10-02T15:32:20.418Z,1.10
2022-10-02T15:35:19.585Z,1.35
2022-10-02T15:38:34.190Z,2.13
2022-10-02T15:41:18.666Z,1.40
2022-10-02T15:44:14.403Z,1.20
2022-10-02T15:47:07.522Z,1.90
2022-10-02T15:50:09.032Z,1.55
2022-10-02T15:53:16.470Z,1.83
2022-10-02T15:55:55.925Z,1.98
2022-10-02T15:59:23.480Z,3.15
2022-10-02T16:02:03.959Z,2.42
2022-10-02T16:04:57.087Z,1.40
2022-10-02T16:07:51.152Z,1.50
2022-10-02T16:10:37.862Z,1.65
2022-10-02T16:13:28.874Z,2.17
2022-10-02T16:16:22.259Z,2.30
2022-10-02T16:19:23.141Z,3.25
2022-10-02T16:22:36.539Z,1.30
2022-10-02T16:25:03.484Z,1.08
2022-10-02T16:28:13.820Z,2.97
2022-10-02T16:30:49.926Z,1.27
2022-10-02T16:33:44.060Z,2.03
2022-10-02T16:36:34.725Z,1.38
2022-10-02T16:39:16.220Z,2.50
2022-10-02T16:41:59.901Z,1.70
2022-10-02T16:44:48.196Z,2.63
2022-10-02T16:47:46.102Z,1.60
2022-10-02T16:50:30.763Z,2.00
2022-10-02T16:53:11.946Z,1.15
2022-10-02T16:55:45.810Z,2.38
2022-10-02T16:58:26.192Z,1.65
2022-10-02T17:01:07.233Z,1.35
2022-10-02T17:04:05.137Z,2.38
2022-10-02T17:06:48.766Z,1.70
2022-10-02T17:09:44.101Z,1.58
2022-10-02T17:12:31.720Z,3.35
2022-10-02T17:15:22.298Z,1.83
2022-10-02T17:18:33.767Z,3.75
2022-10-02T17:21:22.680Z,1.60
2022-10-02T17:24:40.041Z,1.42
2022-10-02T17:33:22.391Z,2.08
2022-10-02T17:36:01.755Z,1.92
2022-10-02T17:38:54.512Z,2.42
2022-10-02T17:41:47.098Z,1.92
2022-10-02T17:44:24.688Z,2.05
2022-10-02T17:47:09.889Z,2.28
2022-10-02T17:49:55.247Z,1.90
2022-10-02T17:52:56.724Z,1.60
2022-10-02T17:55:57.278Z,1.30
2022-10-02T17:58:45.937Z,2.40
2022-10-02T18:01:46.431Z,1.45
2022-10-02T18:04:38.022Z,2.55
2022-10-02T18:07:54.991Z,2.95
2022-10-02T18:10:31.069Z,2.65
2022-10-02T18:13:14.652Z,2.38
2022-10-02T18:16:32.372Z,1.38
2022-10-02T18:19:45.206Z,1.65
2022-10-02T18:22:55.728Z,1.95
2022-10-02T18:25:53.361Z,3.65
2022-10-02T18:28:39.878Z,1.10
2022-10-02T18:31:54.834Z,2.17
2022-10-02T18:34:48.628Z,2.47
2022-10-02T18:37:40.910Z,2.20
2022-10-02T18:40:29.777Z,1.60
2022-10-02T18:43:15.515Z,1.67
2022-10-02T18:46:20.444Z,2.75
2022-10-02T18:49:37.510Z,2.60
2022-10-02T18:52:38.510Z,1.75
2022-10-02T18:55:21.797Z,1.42
2022-10-02T18:58:45.567Z,1.20
2022-10-02T19:01:39.667Z,1.80
2022-10-02T19:04:35.943Z,1.90
2022-10-02T19:07:38.266Z,1.98
2022-10-02T19:10:34.371Z,2.25
2022-10-02T19:13:12.657Z,1.52
2022-10-02T19:15:47.044Z,2.17
2022-10-02T19:18:25.982Z,2.00
2022-10-02T19:20:58.619Z,1.38
2022-10-02T19:23:51.397Z,3.35
2022-10-02T19:26:23.547Z,1.98
2022-10-02T19:29:20.087Z,2.00
2022-10-02T19:34:22.148Z,2.15
2022-10-02T19:36:54.412Z,2.45
2022-10-02T19:39:33.299Z,1.48
2022-10-02T19:42:07.916Z,1.17
2022-10-02T19:44:42.040Z,1.63
2022-10-02T19:47:32.765Z,1.67
2022-10-02T19:50:02.357Z,1.60
2022-10-02T19:52:57.950Z,2.17
2022-10-02T19:55:37.142Z,1.75
2022-10-02T19:58:20.856Z,1.73
2022-10-02T20:00:53.263Z,2.05
2022-10-02T20:03:23.430Z,1.55
2022-10-02T20:05:55.845Z,1.85
2022-10-02T20:08:30.029Z,2.35
2022-10-02T20:11:15.240Z,1.75
2022-10-02T20:13:53.387Z,1.60
2022-10-02T20:16:44.223Z,1.70
2022-10-02T20:19:20.463Z,2.17
2022-10-02T20:21:56.261Z,2.88
2022-10-02T20:27:44.913Z,1.60
2022-10-02T20:30:19.242Z,1.95
2022-10-02T20:33:31.163Z,1.30
2022-10-02T20:36:23.233Z,1.80
2022-10-02T20:39:00.792Z,2.10
2022-10-02T20:41:41.515Z,2.03
2022-10-02T20:44:08.569Z,1.58
2022-10-02T20:47:09.441Z,1.60
2022-10-02T20:49:53.869Z,2.20
2022-10-02T20:52:55.032Z,1.92
2022-10-02T20:55:56.846Z,1.63
2022-10-02T20:59:03.548Z,2.15
2022-10-02T21:02:05.338Z,1.90
2022-10-02T21:04:57.896Z,3.08
2022-10-02T21:07:37.461Z,1.73
2022-10-02T21:10:40.595Z,2.25
2022-10-02T21:13:35.253Z,2.42
2022-10-02T21:16:20.896Z,2.42
2022-10-02T21:19:18.755Z,2.75
2022-10-02T21:22:05.415Z,1.77
2022-10-02T21:25:18.239Z,2.60
2022-10-02T21:28:14.119Z,3.13
2022-10-02T21:31:14.367Z,2.58
2022-10-02T21:33:51.923Z,2.85
2022-10-02T21:36:31.449Z,1.67
2022-10-02T21:39:44.423Z,2.67
2022-10-02T21:43:09.934Z,2.20
2022-10-02T21:46:34.119Z,2.47
2022-10-02T21:49:42.026Z,2.42
2022-10-02T21:52:58.802Z,2.40
2022-10-02T21:55:47.514Z,2.40
2022-10-02T21:58:23.292Z,2.60
2022-10-02T22:04:21.749Z,3.65
2022-10-02T22:06:57.255Z,2.50
2022-10-02T22:09:31.150Z,2.55
2022-10-02T22:12:26.168Z,2.30
2022-10-02T22:15:17.186Z,3.40
2022-10-02T22:18:01.325Z,2.90
2022-10-02T22:20:50.836Z,2.83
2022-10-02T22:23:42.198Z,3.08
2022-10-02T22:26:53.596Z,2.80
2022-10-02T22:29:45.118Z,2.47
2022-10-02T22:32:48.746Z,2.42
2022-10-02T22:35:30.359Z,4.18
2022-10-02T22:38:18.877Z,2.40
2022-10-02T22:40:52.290Z,4.05
2022-10-02T22:43:30.758Z,3.65
2022-10-02T22:46:03.049Z,2.70
2022-10-02T22:48:39.852Z,3.42
2022-10-02T22:51:34.228Z,4.32
2022-10-02T22:54:33.331Z,3.22
2022-10-02T22:57:03.504Z,3.20
2022-10-02T22:59:58.475Z,2.30
2022-10-02T23:02:46.067Z,2.47
2022-10-02T23:05:50.731Z,3.17
2022-10-02T23:08:34.571Z,3.15
2022-10-02T23:11:21.720Z,2.45
2022-10-02T23:14:15.054Z,2.58
2022-10-02T23:17:06.149Z,2.50
2022-10-02T23:19:55.699Z,3.78
2022-10-02T23:23:13.916Z,3.00
2022-10-02T23:25:50.444Z,2.45
2022-10-02T23:28:25.351Z,2.90
2022-10-02T23:31:16.297Z,3.03
2022-10-02T23:34:26.043Z,3.00
2022-10-02T23:37:02.932Z,2.95
2022-10-02T23:39:45.358Z,3.30
2022-10-02T23:42:19.355Z,3.28
2022-10-02T23:44:56.235Z,2.35
2022-10-02T23:47:54.993Z,2.95
2022-10-02T23:50:39.367Z,3.10
2022-10-02T23:53:47.614Z,2.78
2022-10-02T23:56:22.431Z,3.85
2022-10-02T23:59:19.073Z,2.93
